createdAt,value
2019-02-04T00:00:14.623Z,1017.2
2019-02-04T00:01:14.635Z,1017.26
2019-02-04T00:02:14.646Z,1017.23
2019-02-04T00:04:14.670Z,1017.25
2019-02-04T00:05:14.683Z,1017.24
2019-02-04T00:06:14.693Z,1017.27
2019-02-04T00:07:14.706Z,1017.28
2019-02-04T00:08:14.718Z,1017.29
2019-02-04T00:09:14.730Z,1017.33
2019-02-04T00:10:14.741Z,1017.35
2019-02-04T00:11:14.753Z,1017.3
2019-02-04T00:12:14.766Z,1017.37
2019-02-04T00:13:14.776Z,1017.39
2019-02-04T00:14:14.791Z,1017.35
2019-02-04T00:15:14.801Z,1017.34
2019-02-04T00:16:14.813Z,1017.39
2019-02-04T00:17:14.824Z,1017.42
2019-02-04T00:18:14.837Z,1017.48
2019-02-04T00:20:14.860Z,1017.48
2019-02-04T00:21:14.872Z,1017.45
2019-02-04T00:22:14.884Z,1017.51
2019-02-04T00:23:14.897Z,1017.51
2019-02-04T00:24:14.907Z,1017.51
2019-02-04T00:25:14.919Z,1017.51
2019-02-04T00:26:14.931Z,1017.48
2019-02-04T00:27:14.943Z,1017.52
2019-02-04T00:28:14.954Z,1017.48
2019-02-04T00:29:14.966Z,1017.54
2019-02-04T00:30:14.978Z,1017.54
2019-02-04T00:31:14.991Z,1017.52
2019-02-04T00:32:15.002Z,1017.55
2019-02-04T00:33:15.014Z,1017.56
2019-02-04T00:34:15.026Z,1017.58
2019-02-04T00:36:15.049Z,1017.63
2019-02-04T00:37:15.063Z,1017.61
2019-02-04T00:38:15.074Z,1017.65
2019-02-04T00:39:15.084Z,1017.68
2019-02-04T00:40:15.096Z,1017.67
2019-02-04T00:41:15.108Z,1017.72
2019-02-04T00:42:15.120Z,1017.72
2019-02-04T00:43:15.132Z,1017.72
2019-02-04T00:44:15.143Z,1017.74
2019-02-04T00:45:15.155Z,1017.74
2019-02-04T00:46:15.166Z,1017.76
2019-02-04T00:47:15.178Z,1017.83
2019-02-04T00:48:15.190Z,1017.82
2019-02-04T00:49:15.202Z,1017.8
2019-02-04T00:50:15.213Z,1017.77
2019-02-04T00:52:15.238Z,1017.82
2019-02-04T00:53:15.249Z,1017.87
2019-02-04T00:54:15.260Z,1017.91
2019-02-04T00:55:15.273Z,1017.92
2019-02-04T00:56:15.285Z,1017.99
2019-02-04T00:57:15.300Z,1017.98
2019-02-04T00:58:15.308Z,1017.96
2019-02-04T00:59:15.319Z,1018.02
2019-02-04T01:00:15.331Z,1018.02
2019-02-04T01:01:15.343Z,1018.03
2019-02-04T01:02:15.355Z,1018.03
2019-02-04T01:03:15.366Z,1018.09
2019-02-04T01:04:15.378Z,1018.1
2019-02-04T01:05:15.390Z,1018.12
2019-02-04T01:07:15.414Z,1018.14
2019-02-04T01:08:15.425Z,1018.19
2019-02-04T01:09:15.438Z,1018.16
2019-02-04T01:10:15.449Z,1018.16
2019-02-04T01:11:15.461Z,1018.17
2019-02-04T01:12:15.472Z,1018.23
2019-02-04T01:13:15.484Z,1018.27
2019-02-04T01:14:15.502Z,1018.23
2019-02-04T01:15:15.507Z,1018.26
2019-02-04T01:16:15.519Z,1018.28
2019-02-04T01:17:15.530Z,1018.3
2019-02-04T01:18:15.543Z,1018.29
2019-02-04T01:19:15.555Z,1018.32
2019-02-04T01:20:15.566Z,1018.29
2019-02-04T01:21:15.579Z,1018.34
2019-02-04T01:22:15.590Z,1018.31
2019-02-04T01:23:15.600Z,1018.34
2019-02-04T01:24:15.613Z,1018.37
2019-02-04T01:25:15.625Z,1018.35
2019-02-04T01:26:15.750Z,1018.38
2019-02-04T01:27:15.647Z,1018.4
2019-02-04T01:28:15.661Z,1018.37
2019-02-04T01:29:15.671Z,1018.39
2019-02-04T01:30:15.682Z,1018.46
2019-02-04T01:31:15.694Z,1018.44
2019-02-04T01:32:15.706Z,1018.47
2019-02-04T01:33:15.718Z,1018.48
2019-02-04T01:34:15.728Z,1018.56
2019-02-04T01:35:15.741Z,1018.52
2019-02-04T01:36:15.753Z,1018.56
2019-02-04T01:37:15.763Z,1018.59
2019-02-04T01:39:15.787Z,1018.58
2019-02-04T01:40:15.799Z,1018.57
2019-02-04T01:41:15.811Z,1018.63
2019-02-04T01:42:15.822Z,1018.67
2019-02-04T01:43:15.835Z,1018.64
2019-02-04T01:44:15.846Z,1018.67
2019-02-04T01:45:15.857Z,1018.66
2019-02-04T01:46:15.869Z,1018.66
2019-02-04T01:47:15.881Z,1018.73
2019-02-04T01:48:15.891Z,1018.75
2019-02-04T01:49:15.903Z,1018.78
2019-02-04T01:50:15.915Z,1018.8
2019-02-04T01:51:15.927Z,1018.78
2019-02-04T01:52:15.938Z,1018.79
2019-02-04T01:53:15.950Z,1018.77
2019-02-04T01:55:15.973Z,1018.83
2019-02-04T01:56:15.985Z,1018.83
2019-02-04T01:57:15.996Z,1018.85
2019-02-04T01:58:16.009Z,1018.82
2019-02-04T01:59:16.019Z,1018.87
2019-02-04T02:00:16.032Z,1018.8
2019-02-04T02:01:16.042Z,1018.89
2019-02-04T02:02:16.055Z,1018.93
2019-02-04T02:03:16.065Z,1018.89
2019-02-04T02:04:16.077Z,1018.91
2019-02-04T02:05:16.090Z,1018.92
2019-02-04T02:06:16.101Z,1018.88
2019-02-04T02:07:16.118Z,1018.89
2019-02-04T02:08:16.124Z,1018.88
2019-02-04T02:09:16.137Z,1018.84
2019-02-04T02:11:16.158Z,1018.9
2019-02-04T02:12:16.170Z,1018.91
2019-02-04T02:13:16.182Z,1018.96
2019-02-04T02:14:16.194Z,1018.96
2019-02-04T02:15:16.204Z,1018.97
2019-02-04T02:16:16.216Z,1018.96
2019-02-04T02:17:25.852Z,1019.03
2019-02-04T02:18:16.239Z,1019.01
2019-02-04T02:19:16.251Z,1019.03
2019-02-04T02:20:16.263Z,1019.04
2019-02-04T02:21:16.273Z,1019.06
2019-02-04T02:22:16.285Z,1019.08
2019-02-04T02:23:16.298Z,1019.04
2019-02-04T02:24:16.312Z,1019.06
2019-02-04T02:25:16.321Z,1019.08
2019-02-04T02:27:16.343Z,1019.09
2019-02-04T02:28:16.358Z,1019.09
2019-02-04T02:29:16.413Z,1019.1
2019-02-04T02:30:16.379Z,1019.1
2019-02-04T02:31:16.399Z,1019.12
2019-02-04T02:32:16.402Z,1019.09
2019-02-04T02:33:16.412Z,1019.16
2019-02-04T02:34:16.424Z,1019.19
2019-02-04T02:35:16.435Z,1019.18
2019-02-04T02:36:16.446Z,1019.19
2019-02-04T02:37:16.469Z,1019.21
2019-02-04T02:38:16.470Z,1019.22
2019-02-04T02:39:16.484Z,1019.24
2019-02-04T02:40:16.494Z,1019.24
2019-02-04T02:42:16.517Z,1019.24
2019-02-04T02:43:16.529Z,1019.27
2019-02-04T02:44:16.540Z,1019.33
2019-02-04T02:45:16.552Z,1019.34
2019-02-04T02:46:16.564Z,1019.39
2019-02-04T02:47:16.574Z,1019.38
2019-02-04T02:48:16.586Z,1019.44
2019-02-04T02:49:16.598Z,1019.44
2019-02-04T02:50:16.609Z,1019.44
2019-02-04T02:51:16.621Z,1019.51
2019-02-04T02:52:16.634Z,1019.46
2019-02-04T02:53:16.644Z,1019.52
2019-02-04T02:54:16.655Z,1019.49
2019-02-04T02:55:16.669Z,1019.53
2019-02-04T02:56:16.682Z,1019.52
2019-02-04T02:57:16.691Z,1019.52
2019-02-04T02:58:16.702Z,1019.53
2019-02-04T02:59:16.714Z,1019.56
2019-02-04T03:00:16.731Z,1019.56
2019-02-04T03:01:16.736Z,1019.61
2019-02-04T03:02:16.748Z,1019.61
2019-02-04T03:03:16.762Z,1019.58
2019-02-04T03:04:16.772Z,1019.63
2019-02-04T03:05:16.782Z,1019.69
2019-02-04T03:06:16.794Z,1019.69
2019-02-04T03:07:16.806Z,1019.71
2019-02-04T03:08:16.819Z,1019.71
2019-02-04T03:09:16.829Z,1019.73
2019-02-04T03:10:16.841Z,1019.76
2019-02-04T03:11:16.854Z,1019.76
2019-02-04T03:12:16.864Z,1019.77
2019-02-04T03:14:16.889Z,1019.83
2019-02-04T03:15:16.901Z,1019.87
2019-02-04T03:16:16.911Z,1019.92
2019-02-04T03:17:16.923Z,1019.88
2019-02-04T03:18:16.936Z,1019.89
2019-02-04T03:19:16.947Z,1019.94
2019-02-04T03:20:16.958Z,1019.95
2019-02-04T03:21:16.970Z,1019.94
2019-02-04T03:22:16.982Z,1019.93
2019-02-04T03:23:16.993Z,1019.99
2019-02-04T03:24:17.005Z,1019.98
2019-02-04T03:25:17.017Z,1019.99
2019-02-04T03:26:17.029Z,1020.02
2019-02-04T03:27:17.140Z,1020.01
2019-02-04T03:28:17.053Z,1020.06
2019-02-04T03:30:17.100Z,1020.06
2019-02-04T03:31:17.089Z,1020.08
2019-02-04T03:32:17.101Z,1020.15
2019-02-04T03:33:17.121Z,1020.15
2019-02-04T03:34:17.123Z,1020.18
2019-02-04T03:35:17.143Z,1020.18
2019-02-04T03:36:17.148Z,1020.22
2019-02-04T03:37:17.160Z,1020.23
2019-02-04T03:38:17.170Z,1020.24
2019-02-04T03:39:17.181Z,1020.29
2019-02-04T03:40:17.197Z,1020.25
2019-02-04T03:41:17.206Z,1020.29
2019-02-04T03:42:17.218Z,1020.29
2019-02-04T03:43:17.230Z,1020.31
2019-02-04T03:44:17.241Z,1020.31
2019-02-04T03:46:17.264Z,1020.35
2019-02-04T03:47:17.277Z,1020.36
2019-02-04T03:48:17.290Z,1020.39
2019-02-04T03:49:17.303Z,1020.37
2019-02-04T03:50:17.312Z,1020.4
2019-02-04T03:51:17.324Z,1020.41
2019-02-04T03:52:17.337Z,1020.41
2019-02-04T03:53:17.348Z,1020.4
2019-02-04T03:54:17.359Z,1020.45
2019-02-04T03:55:17.374Z,1020.46
2019-02-04T03:56:17.383Z,1020.46
2019-02-04T03:57:17.396Z,1020.48
2019-02-04T03:58:17.407Z,1020.47
2019-02-04T03:59:17.420Z,1020.44
2019-02-04T04:00:17.431Z,1020.46
2019-02-04T04:02:17.456Z,1020.48
2019-02-04T04:03:17.468Z,1020.51
2019-02-04T04:04:17.479Z,1020.51
2019-02-04T04:05:17.493Z,1020.54
2019-02-04T04:06:17.503Z,1020.54
2019-02-04T04:07:17.515Z,1020.56
2019-02-04T04:08:17.527Z,1020.58
2019-02-04T04:09:17.539Z,1020.59
2019-02-04T04:10:17.552Z,1020.58
2019-02-04T04:11:17.655Z,1020.59
2019-02-04T04:12:17.575Z,1020.6
2019-02-04T04:13:17.588Z,1020.6
2019-02-04T04:14:17.600Z,1020.66
2019-02-04T04:15:17.612Z,1020.66
2019-02-04T04:17:17.637Z,1020.61
2019-02-04T04:18:17.648Z,1020.67
2019-02-04T04:19:17.661Z,1020.67
2019-02-04T04:20:17.673Z,1020.68
2019-02-04T04:21:17.691Z,1020.68
2019-02-04T04:22:17.697Z,1020.68
2019-02-04T04:23:17.708Z,1020.75
2019-02-04T04:24:17.721Z,1020.77
2019-02-04T04:25:17.732Z,1020.74
2019-02-04T04:26:17.744Z,1020.73
2019-02-04T04:27:17.757Z,1020.76
2019-02-04T04:28:17.769Z,1020.74
2019-02-04T04:29:17.780Z,1020.77
2019-02-04T04:30:17.792Z,1020.79
2019-02-04T04:31:17.805Z,1020.77
2019-02-04T04:32:17.817Z,1020.81
2019-02-04T04:33:17.830Z,1020.83
2019-02-04T04:34:17.918Z,1020.8
2019-02-04T04:35:17.853Z,1020.85
2019-02-04T04:36:17.866Z,1020.86
2019-02-04T04:37:17.877Z,1020.9
2019-02-04T04:38:17.889Z,1020.9
2019-02-04T04:39:17.901Z,1020.92
2019-02-04T04:40:17.914Z,1020.85
2019-02-04T04:41:17.925Z,1020.94
2019-02-04T04:42:17.937Z,1020.99
2019-02-04T04:43:17.949Z,1020.94
2019-02-04T04:44:17.961Z,1020.98
2019-02-04T04:45:17.974Z,1021.04
2019-02-04T04:46:17.985Z,1021.07
2019-02-04T04:47:17.997Z,1021.06
2019-02-04T04:49:18.023Z,1021.11
2019-02-04T04:50:18.035Z,1021.14
2019-02-04T04:51:18.062Z,1021.1
2019-02-04T04:52:18.057Z,1021.1
2019-02-04T04:53:18.070Z,1021.08
2019-02-04T04:54:18.082Z,1021.1
2019-02-04T04:55:18.093Z,1021.07
2019-02-04T04:56:18.106Z,1021.09
2019-02-04T04:57:18.118Z,1021.07
2019-02-04T04:58:18.230Z,1021.07
2019-02-04T04:59:18.145Z,1021.11
2019-02-04T05:00:18.157Z,1021.09
2019-02-04T05:01:18.166Z,1021.09
2019-02-04T05:02:18.178Z,1021.14
2019-02-04T05:03:18.190Z,1021.14
2019-02-04T05:05:18.214Z,1021.13
2019-02-04T05:06:18.228Z,1021.15
2019-02-04T05:07:18.239Z,1021.15
2019-02-04T05:08:18.251Z,1021.17
2019-02-04T05:09:18.262Z,1021.17
2019-02-04T05:10:18.274Z,1021.19
2019-02-04T05:11:18.287Z,1021.19
2019-02-04T05:12:18.300Z,1021.17
2019-02-04T05:13:18.310Z,1021.2
2019-02-04T05:14:18.323Z,1021.17
2019-02-04T05:15:18.335Z,1021.22
2019-02-04T05:16:18.348Z,1021.17
2019-02-04T05:17:18.359Z,1021.16
2019-02-04T05:18:18.377Z,1021.2
2019-02-04T05:19:18.385Z,1021.18
2019-02-04T05:21:18.409Z,1021.17
2019-02-04T05:22:18.420Z,1021.19
2019-02-04T05:23:18.432Z,1021.18
2019-02-04T05:24:18.444Z,1021.18
2019-02-04T05:25:18.457Z,1021.21
2019-02-04T05:26:18.470Z,1021.23
2019-02-04T05:27:18.483Z,1021.26
2019-02-04T05:28:18.492Z,1021.21
2019-02-04T05:29:18.507Z,1021.2
2019-02-04T05:30:18.543Z,1021.19
2019-02-04T05:31:18.528Z,1021.22
2019-02-04T05:32:18.540Z,1021.2
2019-02-04T05:33:18.553Z,1021.21
2019-02-04T05:34:18.565Z,1021.21
2019-02-04T05:35:18.583Z,1021.21
2019-02-04T05:37:18.602Z,1021.25
2019-02-04T05:38:18.614Z,1021.28
2019-02-04T05:39:18.625Z,1021.31
2019-02-04T05:40:18.637Z,1021.35
2019-02-04T05:41:18.649Z,1021.33
2019-02-04T05:42:18.661Z,1021.36
2019-02-04T05:43:18.673Z,1021.37
2019-02-04T05:44:18.687Z,1021.35
2019-02-04T05:45:18.698Z,1021.38
2019-02-04T05:46:18.710Z,1021.4
2019-02-04T05:47:18.722Z,1021.42
2019-02-04T05:48:18.734Z,1021.42
2019-02-04T05:49:18.747Z,1021.48
2019-02-04T05:50:18.759Z,1021.51
2019-02-04T05:52:18.784Z,1021.55
2019-02-04T05:53:18.795Z,1021.57
2019-02-04T05:54:18.807Z,1021.62
2019-02-04T05:55:18.820Z,1021.63
2019-02-04T05:56:18.832Z,1021.61
2019-02-04T05:57:18.844Z,1021.62
2019-02-04T05:58:18.857Z,1021.64
2019-02-04T05:59:18.942Z,1021.66
2019-02-04T06:00:18.882Z,1021.64
2019-02-04T06:01:18.893Z,1021.64
2019-02-04T06:02:18.905Z,1021.65
2019-02-04T06:03:18.917Z,1021.61
2019-02-04T06:04:18.928Z,1021.62
2019-02-04T06:05:18.944Z,1021.59
2019-02-04T06:06:18.954Z,1021.63
2019-02-04T06:07:18.967Z,1021.59
2019-02-04T06:08:18.979Z,1021.65
2019-02-04T06:09:18.990Z,1021.67
2019-02-04T06:10:19.006Z,1021.67
2019-02-04T06:11:19.013Z,1021.65
2019-02-04T06:12:19.026Z,1021.67
2019-02-04T06:13:19.038Z,1021.68
2019-02-04T06:14:19.050Z,1021.67
2019-02-04T06:15:19.062Z,1021.72
2019-02-04T06:16:19.075Z,1021.73
2019-02-04T06:17:19.088Z,1021.75
2019-02-04T06:18:19.100Z,1021.79
2019-02-04T06:19:19.111Z,1021.81
2019-02-04T06:20:19.125Z,1021.84
2019-02-04T06:21:19.135Z,1021.82
2019-02-04T06:22:19.147Z,1021.85
2019-02-04T06:24:19.172Z,1021.86
2019-02-04T06:25:19.187Z,1021.9
2019-02-04T06:26:19.196Z,1021.94
2019-02-04T06:27:19.210Z,1021.94
2019-02-04T06:28:19.221Z,1021.96
2019-02-04T06:29:19.233Z,1021.97
2019-02-04T06:30:19.265Z,1021.92
2019-02-04T06:31:19.257Z,1021.97
2019-02-04T06:32:19.270Z,1021.93
2019-02-04T06:33:19.280Z,1021.96
2019-02-04T06:34:19.296Z,1021.98
2019-02-04T06:35:19.317Z,1021.96
2019-02-04T06:36:19.317Z,1021.97
2019-02-04T06:37:19.330Z,1022.01
2019-02-04T06:38:19.340Z,1021.98
2019-02-04T06:40:19.365Z,1022.03
2019-02-04T06:41:19.377Z,1022.02
2019-02-04T06:42:19.388Z,1022.09
2019-02-04T06:43:19.402Z,1022.03
2019-02-04T06:44:19.412Z,1022.07
2019-02-04T06:45:19.424Z,1022.09
2019-02-04T06:46:19.436Z,1022.07
2019-02-04T06:47:19.449Z,1022.12
2019-02-04T06:48:19.469Z,1022.12
2019-02-04T06:49:19.472Z,1022.13
2019-02-04T06:50:19.484Z,1022.12
2019-02-04T06:51:19.497Z,1022.15
2019-02-04T06:52:19.510Z,1022.17
2019-02-04T06:53:19.520Z,1022.18
2019-02-04T06:54:19.532Z,1022.21
2019-02-04T06:56:19.555Z,1022.21
2019-02-04T06:57:19.569Z,1022.22
2019-02-04T06:58:19.580Z,1022.26
2019-02-04T06:59:19.591Z,1022.29
2019-02-04T07:00:19.603Z,1022.29
2019-02-04T07:01:19.615Z,1022.29
2019-02-04T07:02:19.627Z,1022.31
2019-02-04T07:03:19.638Z,1022.32
2019-02-04T07:04:19.652Z,1022.34
2019-02-04T07:05:19.662Z,1022.36
2019-02-04T07:06:19.674Z,1022.39
2019-02-04T07:07:19.686Z,1022.37
2019-02-04T07:08:19.698Z,1022.39
2019-02-04T07:09:19.710Z,1022.4
2019-02-04T07:10:19.721Z,1022.4
2019-02-04T07:12:19.746Z,1022.39
2019-02-04T07:13:19.758Z,1022.4
2019-02-04T07:14:19.769Z,1022.39
2019-02-04T07:15:19.783Z,1022.41
2019-02-04T07:16:19.794Z,1022.44
2019-02-04T07:17:19.805Z,1022.43
2019-02-04T07:18:19.818Z,1022.47
2019-02-04T07:19:24.050Z,1022.46
2019-02-04T07:20:19.843Z,1022.45
2019-02-04T07:21:20.963Z,1022.46
2019-02-04T07:22:19.868Z,1022.48
2019-02-04T07:23:19.879Z,1022.49
2019-02-04T07:24:19.892Z,1022.45
2019-02-04T07:25:19.905Z,1022.5
2019-02-04T07:27:22.385Z,1022.51
2019-02-04T07:28:19.942Z,1022.46
2019-02-04T07:29:19.955Z,1022.5
2019-02-04T07:30:19.966Z,1022.46
2019-02-04T07:31:19.980Z,1022.49
2019-02-04T07:32:19.991Z,1022.53
2019-02-04T07:33:20.009Z,1022.53
2019-02-04T07:34:20.017Z,1022.51
2019-02-04T07:35:20.028Z,1022.56
2019-02-04T07:36:20.044Z,1022.51
2019-02-04T07:37:20.053Z,1022.54
2019-02-04T07:38:20.066Z,1022.53
2019-02-04T07:39:20.082Z,1022.48
2019-02-04T07:40:20.091Z,1022.49
2019-02-04T07:41:20.103Z,1022.52
2019-02-04T07:42:20.176Z,1022.52
2019-02-04T07:43:20.129Z,1022.57
2019-02-04T07:44:20.141Z,1022.6
2019-02-04T07:45:20.154Z,1022.58
2019-02-04T07:46:20.166Z,1022.56
2019-02-04T07:47:20.179Z,1022.56
2019-02-04T07:48:20.192Z,1022.5
2019-02-04T07:49:20.205Z,1022.54
2019-02-04T07:50:20.217Z,1022.58
2019-02-04T07:51:20.236Z,1022.61
2019-02-04T07:52:20.245Z,1022.58
2019-02-04T07:53:20.257Z,1022.62
2019-02-04T07:54:20.268Z,1022.66
2019-02-04T07:55:20.281Z,1022.76
2019-02-04T07:56:20.295Z,1022.73
2019-02-04T07:57:20.306Z,1022.66
2019-02-04T07:59:20.333Z,1022.74
2019-02-04T08:00:20.347Z,1022.76
2019-02-04T08:01:20.360Z,1022.73
2019-02-04T08:02:20.376Z,1022.71
2019-02-04T08:03:20.387Z,1022.72
2019-02-04T08:04:20.402Z,1022.71
2019-02-04T08:05:20.415Z,1022.74
2019-02-04T08:06:20.452Z,1022.75
2019-02-04T08:07:20.441Z,1022.77
2019-02-04T08:08:20.453Z,1022.78
2019-02-04T08:09:20.474Z,1022.75
2019-02-04T08:10:20.483Z,1022.8
2019-02-04T08:11:20.495Z,1022.83
2019-02-04T08:12:20.509Z,1022.82
2019-02-04T08:13:20.523Z,1022.83
2019-02-04T08:15:20.551Z,1022.81
2019-02-04T08:16:20.566Z,1022.8
2019-02-04T08:17:20.577Z,1022.83
2019-02-04T08:18:20.591Z,1022.79
2019-02-04T08:19:20.605Z,1022.8
2019-02-04T08:20:22.536Z,1022.78
2019-02-04T08:21:20.633Z,1022.81
2019-02-04T08:22:20.647Z,1022.85
2019-02-04T08:23:20.660Z,1022.86
2019-02-04T08:24:20.675Z,1022.84
2019-02-04T08:25:20.689Z,1022.84
2019-02-04T08:26:20.703Z,1022.83
2019-02-04T08:27:20.718Z,1022.84
2019-02-04T08:28:20.731Z,1022.9
2019-02-04T08:29:20.745Z,1022.87
2019-02-04T08:31:20.874Z,1022.87
2019-02-04T08:32:20.787Z,1022.89
2019-02-04T08:33:20.804Z,1022.87
2019-02-04T08:34:20.827Z,1022.87
2019-02-04T08:35:20.829Z,1022.94
2019-02-04T08:36:20.845Z,1022.93
2019-02-04T08:37:20.859Z,1022.91
2019-02-04T08:38:20.872Z,1022.88
2019-02-04T08:39:20.891Z,1022.9
2019-02-04T08:40:20.903Z,1022.94
2019-02-04T08:41:20.915Z,1023
2019-02-04T08:42:20.930Z,1023.01
2019-02-04T08:43:20.944Z,1023
2019-02-04T08:44:20.959Z,1023.02
2019-02-04T08:45:20.972Z,1023
2019-02-04T08:47:22.564Z,1022.95
2019-02-04T08:48:21.016Z,1022.95
2019-02-04T08:49:21.102Z,1022.93
2019-02-04T08:50:21.049Z,1022.92
2019-02-04T08:51:21.059Z,1022.92
2019-02-04T08:52:21.075Z,1022.93
2019-02-04T08:53:21.087Z,1022.93
2019-02-04T08:54:21.165Z,1022.97
2019-02-04T08:55:21.116Z,1022.93
2019-02-04T08:56:21.130Z,1022.92
2019-02-04T08:57:21.145Z,1022.92
2019-02-04T08:58:21.221Z,1022.97
2019-02-04T08:59:21.175Z,1022.97
2019-02-04T09:00:21.190Z,1022.97
2019-02-04T09:02:21.219Z,1022.98
2019-02-04T09:03:21.233Z,1023
2019-02-04T09:04:21.248Z,1023
2019-02-04T09:05:21.265Z,1023
2019-02-04T09:06:21.278Z,1022.99
2019-02-04T09:07:21.292Z,1022.98
2019-02-04T09:08:21.306Z,1022.98
2019-02-04T09:09:21.322Z,1022.97
2019-02-04T09:10:21.342Z,1023
2019-02-04T09:11:21.351Z,1023.01
2019-02-04T09:12:21.365Z,1022.99
2019-02-04T09:13:21.380Z,1022.99
2019-02-04T09:14:21.394Z,1023
2019-02-04T09:15:21.409Z,1023.01
2019-02-04T09:16:21.424Z,1023.04
2019-02-04T09:17:21.439Z,1023.03
2019-02-04T09:18:21.453Z,1023.05
2019-02-04T09:19:21.468Z,1023.04
2019-02-04T09:20:21.482Z,1023.01
2019-02-04T09:21:21.498Z,1023.02
2019-02-04T09:22:21.511Z,1023.02
2019-02-04T09:23:21.527Z,1023.06
2019-02-04T09:24:21.542Z,1023
2019-02-04T09:25:21.556Z,1023
2019-02-04T09:26:21.573Z,1023.04
2019-02-04T09:27:21.586Z,1022.97
2019-02-04T09:28:21.601Z,1022.99
2019-02-04T09:29:21.615Z,1022.95
2019-02-04T09:30:21.630Z,1022.97
2019-02-04T09:31:21.645Z,1022.96
2019-02-04T09:32:21.660Z,1022.99
2019-02-04T09:34:21.689Z,1022.94
2019-02-04T09:35:21.793Z,1022.93
2019-02-04T09:36:21.727Z,1022.94
2019-02-04T09:37:21.734Z,1022.98
2019-02-04T09:38:21.752Z,1022.93
2019-02-04T09:39:21.764Z,1022.91
2019-02-04T09:40:21.780Z,1022.94
2019-02-04T09:41:21.793Z,1022.92
2019-02-04T09:42:21.909Z,1022.92
2019-02-04T09:43:21.823Z,1023.01
2019-02-04T09:44:21.838Z,1022.99
2019-02-04T09:45:24.328Z,1023.03
2019-02-04T09:46:21.869Z,1023.06
2019-02-04T09:47:21.884Z,1023.01
2019-02-04T09:48:21.898Z,1022.95
2019-02-04T09:50:22.186Z,1023.02
2019-02-04T09:51:21.943Z,1023.01
2019-02-04T09:52:21.962Z,1023.04
2019-02-04T09:53:21.974Z,1023.05
2019-02-04T09:54:21.988Z,1023.05
2019-02-04T09:55:22.010Z,1022.99
2019-02-04T09:56:22.118Z,1022.96
2019-02-04T09:57:22.034Z,1022.98
2019-02-04T09:58:22.048Z,1022.99
2019-02-04T09:59:22.063Z,1022.97
2019-02-04T10:00:22.079Z,1023.02
2019-02-04T10:01:22.094Z,1022.99
2019-02-04T10:02:22.110Z,1023.01
2019-02-04T10:03:22.124Z,1023
2019-02-04T10:04:22.139Z,1022.99
2019-02-04T10:06:22.171Z,1023
2019-02-04T10:07:22.187Z,1023.02
2019-02-04T10:08:22.200Z,1023.07
2019-02-04T10:09:22.215Z,1023.07
2019-02-04T10:10:22.230Z,1023.04
2019-02-04T10:11:22.245Z,1023.02
2019-02-04T10:12:22.311Z,1023.03
2019-02-04T10:13:22.276Z,1022.98
2019-02-04T10:14:22.292Z,1022.98
2019-02-04T10:15:22.315Z,1023.04
2019-02-04T10:16:22.333Z,1023.05
2019-02-04T10:17:22.382Z,1022.97
2019-02-04T10:18:22.385Z,1022.93
2019-02-04T10:19:22.368Z,1022.97
2019-02-04T10:20:32.951Z,1022.99
2019-02-04T10:22:22.413Z,1022.98
2019-02-04T10:23:22.430Z,1023.01
2019-02-04T10:24:22.460Z,1022.95
2019-02-04T10:25:22.468Z,1022.94
2019-02-04T10:26:22.492Z,1022.94
2019-02-04T10:27:22.489Z,1022.93
2019-02-04T10:28:22.538Z,1022.93
2019-02-04T10:29:22.568Z,1022.96
2019-02-04T10:30:22.563Z,1022.95
2019-02-04T10:31:22.590Z,1022.94
2019-02-04T10:32:22.583Z,1022.91
2019-02-04T10:33:22.591Z,1022.97
2019-02-04T10:34:22.661Z,1022.91
2019-02-04T10:35:22.612Z,1022.91
2019-02-04T10:37:22.672Z,1022.96
2019-02-04T10:38:22.677Z,1022.92
2019-02-04T10:39:22.674Z,1022.97
2019-02-04T10:40:22.688Z,1022.96
2019-02-04T10:41:22.742Z,1022.96
2019-02-04T10:42:22.746Z,1022.95
2019-02-04T10:43:22.735Z,1022.96
2019-02-04T10:44:22.768Z,1023.01
2019-02-04T10:45:22.768Z,1022.98
2019-02-04T10:46:22.796Z,1022.97
2019-02-04T10:47:22.838Z,1022.98
2019-02-04T10:48:22.822Z,1022.97
2019-02-04T10:49:22.825Z,1022.98
2019-02-04T10:50:22.846Z,1022.99
2019-02-04T10:51:22.859Z,1022.95
2019-02-04T10:52:22.979Z,1022.98
2019-02-04T10:53:22.940Z,1022.99
2019-02-04T10:54:22.903Z,1023.02
2019-02-04T10:55:22.947Z,1022.93
2019-02-04T10:56:22.942Z,1022.97
2019-02-04T10:57:22.945Z,1022.93
2019-02-04T10:58:23.013Z,1022.95
2019-02-04T10:59:22.985Z,1022.94
2019-02-04T11:00:23.030Z,1022.92
2019-02-04T11:01:23.007Z,1022.92
2019-02-04T11:02:23.048Z,1022.9
2019-02-04T11:03:23.067Z,1022.88
2019-02-04T11:04:23.051Z,1022.87
2019-02-04T11:05:23.100Z,1022.86
2019-02-04T11:06:23.082Z,1022.87
2019-02-04T11:07:23.127Z,1022.84
2019-02-04T11:09:23.141Z,1022.9
2019-02-04T11:10:23.185Z,1022.92
2019-02-04T11:11:23.206Z,1022.89
2019-02-04T11:12:23.171Z,1022.86
2019-02-04T11:13:23.231Z,1022.89
2019-02-04T11:14:23.203Z,1022.84
2019-02-04T11:15:25.557Z,1022.91
2019-02-04T11:16:23.235Z,1022.87
2019-02-04T11:17:23.297Z,1022.88
2019-02-04T11:18:23.309Z,1022.88
2019-02-04T11:19:23.318Z,1022.85
2019-02-04T11:20:23.292Z,1022.85
2019-02-04T11:21:23.308Z,1022.84
2019-02-04T11:22:23.323Z,1022.83
2019-02-04T11:23:23.355Z,1022.8
2019-02-04T11:25:23.403Z,1022.81
2019-02-04T11:26:23.410Z,1022.73
2019-02-04T11:27:23.398Z,1022.75
2019-02-04T11:28:23.461Z,1022.81
2019-02-04T11:29:23.436Z,1022.77
2019-02-04T11:30:23.474Z,1022.78
2019-02-04T11:31:23.567Z,1022.8
2019-02-04T11:32:23.474Z,1022.79
2019-02-04T11:33:23.522Z,1022.72
2019-02-04T11:34:23.613Z,1022.74
2019-02-04T11:35:23.519Z,1022.79
2019-02-04T11:36:23.540Z,1022.83
2019-02-04T11:37:23.550Z,1022.85
2019-02-04T11:38:23.565Z,1022.86
2019-02-04T11:39:23.579Z,1022.87
2019-02-04T11:41:23.610Z,1022.88
2019-02-04T11:42:23.677Z,1022.91
2019-02-04T11:43:23.676Z,1022.8
2019-02-04T11:44:23.655Z,1022.86
2019-02-04T11:45:23.723Z,1022.86
2019-02-04T11:46:23.749Z,1022.87
2019-02-04T11:47:23.734Z,1022.86
2019-02-04T11:48:23.751Z,1022.85
2019-02-04T11:49:23.730Z,1022.88
2019-02-04T11:50:23.746Z,1022.9
2019-02-04T11:51:23.761Z,1022.93
2019-02-04T11:52:23.776Z,1022.92
2019-02-04T11:53:32.186Z,1022.9
2019-02-04T11:54:23.806Z,1022.96
2019-02-04T11:55:23.821Z,1022.97
2019-02-04T11:57:23.851Z,1022.92
2019-02-04T11:58:23.867Z,1022.88
2019-02-04T11:59:23.882Z,1022.91
2019-02-04T12:00:23.897Z,1022.86
2019-02-04T12:01:23.921Z,1022.88
2019-02-04T12:02:34.053Z,1022.83
2019-02-04T12:03:23.942Z,1022.8
2019-02-04T12:04:23.958Z,1022.75
2019-02-04T12:05:23.973Z,1022.78
2019-02-04T12:06:23.987Z,1022.77
2019-02-04T12:07:24.003Z,1022.74
2019-02-04T12:08:24.019Z,1022.71
2019-02-04T12:09:24.034Z,1022.74
2019-02-04T12:10:24.050Z,1022.67
2019-02-04T12:12:24.080Z,1022.71
2019-02-04T12:13:24.094Z,1022.7
2019-02-04T12:14:24.110Z,1022.69
2019-02-04T12:15:24.127Z,1022.77
2019-02-04T12:16:24.142Z,1022.75
2019-02-04T12:17:24.157Z,1022.69
2019-02-04T12:18:24.171Z,1022.67
2019-02-04T12:19:24.186Z,1022.69
2019-02-04T12:20:24.201Z,1022.67
2019-02-04T12:21:24.218Z,1022.69
2019-02-04T12:22:24.235Z,1022.7
2019-02-04T12:23:24.248Z,1022.74
2019-02-04T12:24:24.262Z,1022.71
2019-02-04T12:25:24.278Z,1022.67
2019-02-04T12:26:24.293Z,1022.71
2019-02-04T12:27:31.704Z,1022.72
2019-02-04T12:28:24.323Z,1022.73
2019-02-04T12:29:24.339Z,1022.74
2019-02-04T12:30:24.357Z,1022.77
2019-02-04T12:31:24.370Z,1022.69
2019-02-04T12:32:24.384Z,1022.68
2019-02-04T12:33:24.400Z,1022.61
2019-02-04T12:34:24.417Z,1022.67
2019-02-04T12:35:24.431Z,1022.68
2019-02-04T12:36:24.446Z,1022.66
2019-02-04T12:37:24.508Z,1022.75
2019-02-04T12:38:24.477Z,1022.7
2019-02-04T12:39:24.491Z,1022.67
2019-02-04T12:40:24.507Z,1022.72
2019-02-04T12:41:24.523Z,1022.7
2019-02-04T12:42:24.537Z,1022.73
2019-02-04T12:44:24.568Z,1022.76
2019-02-04T12:45:24.583Z,1022.81
2019-02-04T12:46:24.599Z,1022.77
2019-02-04T12:47:24.614Z,1022.79
2019-02-04T12:48:24.629Z,1022.77
2019-02-04T12:49:24.648Z,1022.78